createdAt,value
2018-07-04T00:00:58.462Z,19.14
2018-07-04T00:03:38.149Z,19.20
2018-07-04T00:06:18.098Z,19.09
2018-07-04T00:08:57.797Z,19.09
2018-07-04T00:11:37.555Z,18.99
2018-07-04T00:14:17.238Z,18.92
2018-07-04T00:16:57.017Z,18.87
2018-07-04T00:19:36.777Z,18.83
2018-07-04T00:22:16.689Z,18.80
2018-07-04T00:24:56.597Z,18.72
2018-07-04T00:27:37.067Z,18.71
2018-07-04T00:30:16.911Z,18.68
2018-07-04T00:32:56.737Z,18.60
2018-07-04T00:35:36.591Z,18.57
2018-07-04T00:38:16.355Z,18.56
2018-07-04T00:40:56.218Z,18.54
2018-07-04T00:43:36.153Z,18.52
2018-07-04T00:46:15.922Z,18.52
2018-07-04T00:48:55.806Z,18.45
2018-07-04T00:51:35.699Z,18.27
2018-07-04T00:54:15.626Z,18.25
2018-07-04T00:56:55.419Z,18.20
2018-07-04T00:59:35.351Z,18.23
2018-07-04T01:02:15.275Z,18.14
2018-07-04T01:04:55.048Z,18.13
2018-07-04T01:07:34.969Z,18.13
2018-07-04T01:10:14.942Z,17.96
2018-07-04T01:12:54.741Z,17.90
2018-07-04T01:15:34.590Z,17.82
2018-07-04T01:18:14.497Z,17.76
2018-07-04T01:20:59.559Z,17.70
2018-07-04T01:23:39.378Z,17.61
2018-07-04T01:26:19.426Z,17.62
2018-07-04T01:28:59.188Z,17.67
2018-07-04T01:31:39.101Z,17.68
2018-07-04T01:34:18.988Z,17.65
2018-07-04T01:36:59.020Z,17.67
2018-07-04T01:39:38.886Z,17.69
2018-07-04T01:42:18.817Z,17.65
2018-07-04T01:44:58.599Z,17.67
2018-07-04T01:47:38.609Z,17.69
2018-07-04T01:50:18.622Z,17.66
2018-07-04T01:52:58.576Z,17.65
2018-07-04T01:55:38.477Z,17.64
2018-07-04T01:58:18.418Z,17.67
2018-07-04T02:00:57.937Z,17.70
2018-07-04T02:03:37.961Z,17.70
2018-07-04T02:06:17.631Z,17.69
2018-07-04T02:08:57.344Z,17.68
2018-07-04T02:11:37.112Z,17.63
2018-07-04T02:14:16.690Z,17.60
2018-07-04T02:16:56.598Z,17.50
2018-07-04T02:19:36.362Z,17.49
2018-07-04T02:22:16.201Z,17.49
2018-07-04T02:24:56.128Z,17.44
2018-07-04T02:27:35.889Z,17.40
2018-07-04T02:30:15.634Z,17.43
2018-07-04T02:32:55.675Z,17.41
2018-07-04T02:35:35.631Z,17.29
2018-07-04T02:38:15.422Z,17.30
2018-07-04T02:40:55.454Z,17.29
2018-07-04T02:43:35.302Z,17.22
2018-07-04T02:46:19.188Z,17.21
2018-07-04T02:48:59.110Z,17.21
2018-07-04T02:51:38.825Z,17.17
2018-07-04T02:54:18.805Z,17.15
2018-07-04T02:56:58.671Z,17.05
2018-07-04T02:59:38.535Z,17.05
2018-07-04T03:02:18.431Z,16.95
2018-07-04T03:04:58.291Z,16.87
2018-07-04T03:07:37.943Z,16.80
2018-07-04T03:10:17.854Z,16.81
2018-07-04T03:12:57.698Z,16.89
2018-07-04T03:15:37.564Z,16.89
2018-07-04T03:18:17.225Z,16.87
2018-07-04T03:20:56.955Z,16.82
2018-07-04T03:23:36.645Z,16.67
2018-07-04T03:26:16.556Z,16.74
2018-07-04T03:28:56.495Z,16.76
2018-07-04T03:31:36.558Z,16.80
2018-07-04T03:34:16.588Z,16.86
2018-07-04T03:36:56.321Z,16.90
2018-07-04T03:39:36.003Z,16.87
2018-07-04T03:42:15.525Z,16.86
2018-07-04T03:44:55.525Z,16.89
2018-07-04T03:47:35.499Z,16.97
2018-07-04T03:50:15.558Z,17.05
2018-07-04T03:52:55.627Z,17.11
2018-07-04T03:55:35.474Z,17.10
2018-07-04T03:58:15.388Z,17.10
2018-07-04T04:00:55.336Z,17.18
2018-07-04T04:03:35.402Z,17.12
2018-07-04T04:06:15.218Z,17.08
2018-07-04T04:08:55.006Z,17.18
2018-07-04T04:11:35.094Z,17.23
2018-07-04T04:14:14.739Z,17.37
2018-07-04T04:16:54.661Z,17.44
2018-07-04T04:19:35.319Z,17.48
2018-07-04T04:22:16.189Z,17.53
2018-07-04T04:24:56.129Z,17.58
2018-07-04T04:27:36.051Z,17.56
2018-07-04T04:30:15.775Z,17.63
2018-07-04T04:32:55.674Z,17.69
2018-07-04T04:35:35.731Z,17.69
2018-07-04T04:38:15.570Z,17.69
2018-07-04T04:40:55.469Z,17.68
2018-07-04T04:43:35.291Z,17.84
2018-07-04T04:46:15.018Z,17.89
2018-07-04T04:48:54.687Z,17.96
2018-07-04T04:51:34.453Z,18.11
2018-07-04T04:54:14.420Z,18.26
2018-07-04T04:56:55.059Z,18.22
2018-07-04T04:59:34.958Z,18.29
2018-07-04T05:02:15.046Z,18.41
2018-07-04T05:04:54.857Z,18.57
2018-07-04T05:07:34.725Z,18.56
2018-07-04T05:10:14.446Z,18.65
2018-07-04T05:12:54.329Z,18.69
2018-07-04T05:15:34.225Z,18.83
2018-07-04T05:18:14.116Z,18.96
2018-07-04T05:20:53.945Z,19.03
2018-07-04T05:23:33.809Z,19.09
2018-07-04T05:26:13.966Z,19.22
2018-07-04T05:28:54.015Z,19.33
2018-07-04T05:31:33.809Z,19.43
2018-07-04T05:34:13.710Z,19.51
2018-07-04T05:36:53.461Z,19.54
2018-07-04T05:39:33.286Z,19.69
2018-07-04T05:42:13.011Z,19.70
2018-07-04T05:44:52.853Z,19.77
2018-07-04T05:47:32.590Z,19.86
2018-07-04T05:50:12.244Z,19.96
2018-07-04T05:52:52.216Z,20.11
2018-07-04T05:55:32.009Z,19.95
2018-07-04T05:58:12.100Z,20.11
2018-07-04T06:00:52.073Z,20.27
2018-07-04T06:03:31.867Z,20.43
2018-07-04T06:06:12.122Z,20.62
2018-07-04T06:08:52.285Z,20.87
2018-07-04T06:11:31.946Z,20.92
2018-07-04T06:14:11.758Z,21.09
2018-07-04T06:16:51.677Z,21.14
2018-07-04T06:19:31.513Z,21.42
2018-07-04T06:22:11.449Z,21.53
2018-07-04T06:24:51.206Z,21.76
2018-07-04T06:27:31.154Z,21.89
2018-07-04T06:30:11.283Z,22.05
2018-07-04T06:32:51.135Z,22.30
2018-07-04T06:35:30.964Z,22.45
2018-07-04T06:37:58.415Z,22.57
2018-07-04T06:40:25.899Z,22.82
2018-07-04T06:42:53.553Z,22.85
2018-07-04T06:45:21.047Z,22.86
2018-07-04T06:47:48.602Z,22.99
2018-07-04T06:50:16.263Z,23.27
2018-07-04T06:52:43.727Z,23.29
2018-07-04T06:55:11.308Z,23.43
2018-07-04T06:57:38.918Z,23.59
2018-07-04T07:00:06.498Z,23.51
2018-07-04T07:02:34.109Z,23.63
2018-07-04T07:05:14.042Z,23.37
2018-07-04T07:07:54.175Z,23.24
2018-07-04T07:10:34.492Z,23.44
2018-07-04T07:13:14.363Z,23.83
2018-07-04T07:15:54.371Z,23.71
2018-07-04T07:18:34.068Z,23.88
2018-07-04T07:21:13.886Z,24.21
2018-07-04T07:23:53.613Z,24.21
2018-07-04T07:26:33.451Z,24.60
2018-07-04T07:29:13.365Z,24.75
2018-07-04T07:31:53.429Z,24.98
2018-07-04T07:34:33.141Z,24.88
2018-07-04T07:37:13.222Z,25.05
2018-07-04T07:39:53.058Z,24.89
2018-07-04T07:42:32.804Z,24.77
2018-07-04T07:45:12.825Z,25.03
2018-07-04T07:47:52.766Z,25.11
2018-07-04T07:50:32.545Z,25.08
2018-07-04T07:53:12.487Z,25.23
2018-07-04T07:55:52.542Z,25.26
2018-07-04T07:58:32.511Z,25.59
2018-07-04T08:01:12.208Z,25.52
2018-07-04T08:03:51.912Z,25.57
2018-07-04T08:06:31.734Z,25.67
2018-07-04T08:09:12.170Z,25.73
2018-07-04T08:11:51.772Z,25.95
2018-07-04T08:14:31.448Z,26.04
2018-07-04T08:17:11.304Z,25.97
2018-07-04T08:19:51.609Z,25.96
2018-07-04T08:22:31.444Z,25.88
2018-07-04T08:25:11.299Z,25.85
2018-07-04T08:27:51.366Z,25.63
2018-07-04T08:30:31.155Z,25.70
2018-07-04T08:33:11.097Z,25.31
2018-07-04T08:35:50.873Z,25.53
2018-07-04T08:38:30.733Z,25.26
2018-07-04T08:41:11.603Z,25.20
2018-07-04T08:43:51.514Z,25.05
2018-07-04T08:46:31.834Z,25.06
2018-07-04T08:49:11.732Z,24.94
2018-07-04T08:51:51.715Z,24.88
2018-07-04T08:54:31.485Z,25.34
2018-07-04T08:57:11.316Z,25.50
2018-07-04T08:59:51.238Z,25.75
2018-07-04T09:02:31.381Z,25.98
2018-07-04T09:05:11.348Z,26.01
2018-07-04T09:07:51.204Z,26.28
2018-07-04T09:10:31.243Z,26.61
2018-07-04T09:13:11.071Z,26.68
2018-07-04T09:15:52.624Z,26.69
2018-07-04T09:18:32.536Z,26.93
2018-07-04T09:21:12.913Z,26.99
2018-07-04T09:23:52.699Z,27.36
2018-07-04T09:26:32.470Z,27.41
2018-07-04T09:29:12.260Z,27.67
2018-07-04T09:31:52.127Z,27.86
2018-07-04T09:34:32.088Z,27.65
2018-07-04T09:37:12.599Z,27.72
2018-07-04T09:39:52.413Z,27.08
2018-07-04T09:42:32.382Z,26.98
2018-07-04T09:45:12.305Z,27.11
2018-07-04T09:47:52.183Z,27.21
2018-07-04T09:50:32.137Z,27.32
2018-07-04T09:53:12.164Z,27.54
2018-07-04T09:55:52.361Z,27.31
2018-07-04T09:58:32.165Z,27.47
2018-07-04T10:01:17.265Z,27.21
2018-07-04T10:03:57.031Z,27.27
2018-07-04T10:06:36.925Z,27.43
2018-07-04T10:09:16.757Z,27.39
2018-07-04T10:11:56.616Z,27.47
2018-07-04T10:14:36.420Z,27.61
2018-07-04T10:17:16.329Z,27.70
2018-07-04T10:19:56.172Z,27.90
2018-07-04T10:22:35.903Z,27.77
2018-07-04T10:25:15.540Z,27.96
2018-07-04T10:27:55.237Z,28.26
2018-07-04T10:30:35.387Z,28.18
2018-07-04T10:33:15.316Z,28.15
2018-07-04T10:35:55.037Z,28.28
2018-07-04T10:38:35.014Z,28.43
2018-07-04T10:41:14.801Z,28.66
2018-07-04T10:43:54.770Z,28.25
2018-07-04T10:46:34.638Z,28.24
2018-07-04T10:49:14.500Z,28.30
2018-07-04T10:51:54.710Z,28.63
2018-07-04T10:54:34.668Z,28.79
2018-07-04T10:57:14.609Z,28.71
2018-07-04T10:59:54.497Z,28.88
2018-07-04T11:02:34.514Z,28.89
2018-07-04T11:05:14.375Z,28.75
2018-07-04T11:07:54.321Z,28.88
2018-07-04T11:10:34.318Z,28.88
2018-07-04T11:13:14.196Z,28.94
2018-07-04T11:15:53.999Z,28.84
2018-07-04T11:18:33.794Z,29.24
2018-07-04T11:21:13.618Z,29.26
2018-07-04T11:23:53.426Z,29.25
2018-07-04T11:26:33.430Z,29.54
2018-07-04T11:29:13.225Z,29.62
2018-07-04T11:31:53.067Z,29.45
2018-07-04T11:34:32.770Z,29.47
2018-07-04T11:37:12.509Z,29.26
2018-07-04T11:39:52.141Z,29.17
2018-07-04T11:42:32.230Z,29.04
2018-07-04T11:45:12.111Z,28.79
2018-07-04T11:47:39.756Z,29.22
2018-07-04T11:50:07.229Z,29.39
2018-07-04T11:52:34.688Z,29.88
2018-07-04T11:55:02.205Z,30.13
2018-07-04T11:57:29.659Z,29.59
2018-07-04T11:59:57.066Z,30.01
2018-07-04T12:02:24.820Z,30.76
2018-07-04T12:05:04.837Z,31.48
2018-07-04T12:07:32.648Z,31.38
2018-07-04T12:10:00.143Z,31.57
2018-07-04T12:12:27.837Z,31.00
2018-07-04T12:14:55.353Z,31.52
2018-07-04T12:17:22.767Z,31.05
2018-07-04T12:19:50.257Z,31.67
2018-07-04T12:22:17.932Z,31.88
2018-07-04T12:24:45.556Z,31.85
2018-07-04T12:27:12.979Z,32.19
2018-07-04T12:29:40.433Z,32.84
2018-07-04T12:32:07.985Z,32.95
2018-07-04T12:34:35.677Z,33.59
2018-07-04T12:37:03.248Z,34.00
2018-07-04T12:39:31.081Z,33.85
2018-07-04T12:41:58.642Z,34.99
2018-07-04T12:44:26.323Z,34.12
2018-07-04T12:46:53.900Z,34.52
2018-07-04T12:49:27.515Z,33.96
2018-07-04T12:51:55.216Z,34.31
2018-07-04T12:54:27.971Z,35.55
2018-07-04T12:57:08.217Z,35.58
2018-07-04T12:59:48.073Z,36.33
2018-07-04T13:02:27.882Z,35.56
2018-07-04T13:05:07.825Z,35.69
2018-07-04T13:07:47.910Z,37.56
2018-07-04T13:10:27.587Z,38.83
2018-07-04T13:13:07.589Z,39.69
2018-07-04T13:15:47.436Z,35.87
2018-07-04T13:18:27.269Z,36.96
2018-07-04T13:21:06.796Z,38.94
2018-07-04T13:23:46.580Z,38.72
2018-07-04T13:26:26.300Z,39.24
2018-07-04T13:29:06.181Z,38.70
2018-07-04T13:31:46.024Z,38.55
2018-07-04T13:34:25.942Z,38.36
2018-07-04T13:37:05.670Z,36.52
2018-07-04T13:39:45.356Z,36.86
2018-07-04T13:42:25.517Z,36.03
2018-07-04T13:45:05.471Z,35.63
2018-07-04T13:47:45.725Z,35.00
2018-07-04T13:50:25.558Z,35.06
2018-07-04T13:53:05.261Z,36.03
2018-07-04T13:55:45.153Z,37.09
2018-07-04T13:58:24.834Z,36.80
2018-07-04T14:01:06.510Z,36.11
2018-07-04T14:03:52.062Z,35.78
2018-07-04T14:06:32.247Z,35.45
2018-07-04T14:09:12.031Z,34.88
2018-07-04T14:11:52.194Z,33.56
2018-07-04T14:14:32.239Z,33.60
2018-07-04T14:17:12.089Z,32.55
2018-07-04T14:19:51.999Z,32.30
2018-07-04T14:22:31.790Z,32.16
2018-07-04T14:25:11.610Z,31.95
2018-07-04T14:27:51.294Z,31.71
2018-07-04T14:30:31.005Z,31.34
2018-07-04T14:33:10.928Z,31.32
2018-07-04T14:35:51.007Z,31.27
2018-07-04T14:38:30.788Z,30.96
2018-07-04T14:41:10.769Z,30.65
2018-07-04T14:43:50.599Z,30.71
2018-07-04T14:46:30.365Z,30.08
2018-07-04T14:49:11.049Z,29.82
2018-07-04T14:51:51.043Z,29.86
2018-07-04T14:54:30.865Z,29.57
2018-07-04T14:57:11.030Z,29.43
2018-07-04T14:59:50.865Z,29.24
2018-07-04T15:02:30.974Z,29.26
2018-07-04T15:05:10.681Z,29.22
2018-07-04T15:07:50.579Z,29.28
2018-07-04T15:10:30.465Z,29.28
2018-07-04T15:13:10.420Z,29.18
2018-07-04T15:15:50.155Z,29.21
2018-07-04T15:18:29.928Z,29.19
2018-07-04T15:21:09.791Z,29.42
2018-07-04T15:23:49.649Z,29.61
2018-07-04T15:26:29.656Z,29.69
2018-07-04T15:29:09.697Z,29.70
2018-07-04T15:31:49.709Z,29.75
2018-07-04T15:34:29.779Z,29.40
2018-07-04T15:37:09.659Z,29.68
2018-07-04T15:39:50.421Z,29.77
2018-07-04T15:42:30.335Z,29.87
2018-07-04T15:45:10.627Z,29.70
2018-07-04T15:47:50.383Z,29.51
2018-07-04T15:50:30.346Z,29.59
2018-07-04T15:53:10.891Z,29.80
2018-07-04T15:55:50.988Z,29.63
2018-07-04T15:58:30.812Z,29.26
2018-07-04T16:01:10.622Z,29.51
2018-07-04T16:03:50.612Z,29.83
2018-07-04T16:06:30.290Z,29.83
2018-07-04T16:09:10.057Z,29.78
2018-07-04T16:11:49.849Z,30.02
2018-07-04T16:14:29.697Z,30.12
2018-07-04T16:17:09.632Z,30.07
2018-07-04T16:19:49.479Z,29.92
2018-07-04T16:22:29.258Z,29.99
2018-07-04T16:25:09.187Z,29.81
2018-07-04T16:27:49.017Z,29.25
2018-07-04T16:30:29.010Z,28.89
2018-07-04T16:33:08.816Z,28.73
2018-07-04T16:35:49.169Z,28.35
2018-07-04T16:38:29.066Z,28.24
2018-07-04T16:41:08.904Z,27.97
2018-07-04T16:43:48.806Z,27.92
2018-07-04T16:46:28.743Z,27.88
2018-07-04T16:49:08.775Z,27.80
2018-07-04T16:51:48.535Z,27.87
2018-07-04T16:54:28.503Z,27.72
2018-07-04T16:57:08.250Z,27.64
2018-07-04T16:59:49.150Z,27.60
2018-07-04T17:02:29.669Z,27.70
2018-07-04T17:05:09.583Z,27.62
2018-07-04T17:07:49.677Z,27.68
2018-07-04T17:10:29.546Z,27.64
2018-07-04T17:13:10.315Z,27.74
2018-07-04T17:15:50.224Z,27.77
2018-07-04T17:18:30.229Z,27.73
2018-07-04T17:21:10.057Z,27.61
2018-07-04T17:23:50.709Z,27.56
2018-07-04T17:26:30.433Z,27.08
2018-07-04T17:29:10.625Z,27.06
2018-07-04T17:31:51.316Z,27.27
2018-07-04T17:34:32.151Z,27.29
2018-07-04T17:37:12.143Z,27.32
2018-07-04T17:39:51.962Z,27.37
2018-07-04T17:42:31.926Z,27.48
2018-07-04T17:45:11.854Z,27.38
2018-07-04T17:47:51.643Z,27.30
2018-07-04T17:50:31.868Z,27.18
2018-07-04T17:53:11.481Z,27.15
2018-07-04T17:55:51.183Z,27.23
2018-07-04T17:58:31.578Z,27.20
2018-07-04T18:01:11.382Z,27.31
2018-07-04T18:03:51.331Z,27.40
2018-07-04T18:06:31.320Z,27.23
2018-07-04T18:09:11.371Z,27.31
2018-07-04T18:11:51.243Z,27.31
2018-07-04T18:14:31.167Z,27.32
2018-07-04T18:17:11.061Z,27.31
2018-07-04T18:19:50.954Z,27.25
2018-07-04T18:22:31.238Z,27.14
2018-07-04T18:25:11.034Z,27.11
2018-07-04T18:27:51.213Z,27.03
2018-07-04T18:30:31.182Z,26.98
2018-07-04T18:33:10.820Z,26.95
2018-07-04T18:35:50.562Z,26.88
2018-07-04T18:38:30.380Z,26.76
2018-07-04T18:41:10.077Z,26.72
2018-07-04T18:43:50.565Z,26.67
2018-07-04T18:46:30.232Z,26.55
2018-07-04T18:49:09.885Z,26.43
2018-07-04T18:51:49.586Z,26.32
2018-07-04T18:54:29.315Z,26.28
2018-07-04T18:57:09.225Z,26.15
2018-07-04T18:59:49.143Z,26.08
2018-07-04T19:02:29.007Z,26.03
2018-07-04T19:05:08.838Z,25.96
2018-07-04T19:07:48.962Z,25.90
2018-07-04T19:10:28.674Z,25.84
2018-07-04T19:13:08.564Z,25.80
2018-07-04T19:15:49.103Z,25.71
2018-07-04T19:18:29.230Z,25.62
2018-07-04T19:21:09.092Z,25.61
2018-07-04T19:23:49.125Z,25.57
2018-07-04T19:26:29.154Z,25.50
2018-07-04T19:29:08.989Z,25.55
2018-07-04T19:31:48.734Z,25.47
2018-07-04T19:34:28.621Z,25.46
2018-07-04T19:37:08.435Z,25.44
2018-07-04T19:39:48.385Z,25.32
2018-07-04T19:42:28.434Z,25.25
2018-07-04T19:45:08.093Z,25.17
2018-07-04T19:47:48.262Z,25.22
2018-07-04T19:50:28.154Z,25.37
2018-07-04T19:53:08.151Z,25.25
2018-07-04T19:55:47.941Z,25.19
2018-07-04T19:58:27.822Z,25.15
2018-07-04T20:01:07.576Z,24.99
2018-07-04T20:03:47.390Z,24.90
2018-07-04T20:06:27.393Z,24.82
2018-07-04T20:09:07.236Z,24.72
2018-07-04T20:11:47.019Z,24.62
2018-07-04T20:14:26.851Z,24.62
2018-07-04T20:17:06.686Z,24.55
2018-07-04T20:19:46.897Z,24.50
2018-07-04T20:22:26.622Z,24.48
2018-07-04T20:25:06.383Z,24.39
2018-07-04T20:27:46.249Z,24.32
2018-07-04T20:30:26.161Z,24.28
2018-07-04T20:33:05.852Z,24.29
2018-07-04T20:35:45.484Z,24.26
2018-07-04T20:38:25.398Z,24.21
2018-07-04T20:41:05.415Z,24.11
2018-07-04T20:43:45.245Z,23.98
2018-07-04T20:46:25.016Z,23.86
2018-07-04T20:49:04.895Z,23.81
2018-07-04T20:51:44.793Z,23.69
2018-07-04T20:54:24.783Z,23.62
2018-07-04T20:57:04.515Z,23.58
2018-07-04T20:59:44.382Z,23.51
2018-07-04T21:02:24.345Z,23.50
2018-07-04T21:05:04.100Z,23.46
2018-07-04T21:07:43.902Z,23.40
2018-07-04T21:10:23.880Z,23.31
2018-07-04T21:13:03.662Z,23.25
2018-07-04T21:15:43.405Z,23.19
2018-07-04T21:18:23.458Z,23.12
2018-07-04T21:21:03.227Z,23.07
2018-07-04T21:23:43.336Z,22.96
2018-07-04T21:26:23.325Z,22.88
2018-07-04T21:29:03.108Z,22.83
2018-07-04T21:31:42.921Z,22.85
2018-07-04T21:34:22.736Z,22.79
2018-07-04T21:37:02.614Z,22.72
2018-07-04T21:39:42.385Z,22.63
2018-07-04T21:42:22.571Z,22.59
2018-07-04T21:45:02.664Z,22.58
2018-07-04T21:47:42.674Z,22.47
2018-07-04T21:50:22.609Z,22.43
2018-07-04T21:53:02.487Z,22.38
2018-07-04T21:55:42.429Z,22.36
2018-07-04T21:58:22.154Z,22.25
2018-07-04T22:01:02.052Z,22.17
2018-07-04T22:03:41.639Z,22.13
2018-07-04T22:06:21.355Z,22.15
2018-07-04T22:09:01.270Z,22.09
2018-07-04T22:11:41.287Z,22.05
2018-07-04T22:14:21.301Z,21.99
2018-07-04T22:17:01.086Z,21.92
2018-07-04T22:19:41.008Z,21.87
2018-07-04T22:22:20.901Z,21.89
2018-07-04T22:25:00.643Z,21.80
2018-07-04T22:27:40.486Z,21.76
2018-07-04T22:30:20.089Z,21.72
2018-07-04T22:32:59.927Z,21.74
2018-07-04T22:35:39.693Z,21.72
2018-07-04T22:38:19.566Z,21.75
2018-07-04T22:40:59.382Z,21.75
2018-07-04T22:43:39.154Z,21.72
2018-07-04T22:46:18.976Z,21.72
2018-07-04T22:48:58.915Z,21.65
2018-07-04T22:51:38.674Z,21.64
2018-07-04T22:54:18.634Z,21.56
2018-07-04T22:56:58.574Z,21.48
2018-07-04T22:59:38.441Z,21.42
2018-07-04T23:02:18.387Z,21.38
2018-07-04T23:04:58.134Z,21.36
2018-07-04T23:07:38.129Z,21.30
2018-07-04T23:10:18.054Z,21.29
2018-07-04T23:12:57.967Z,21.27
2018-07-04T23:15:37.793Z,21.23
2018-07-04T23:18:17.680Z,21.19
2018-07-04T23:20:57.910Z,21.13
2018-07-04T23:23:37.667Z,21.11
2018-07-04T23:26:17.450Z,21.06
2018-07-04T23:28:57.253Z,21.01
2018-07-04T23:31:37.098Z,20.88
2018-07-04T23:34:16.872Z,20.83
2018-07-04T23:36:56.736Z,20.78
2018-07-04T23:39:36.510Z,20.79
2018-07-04T23:42:16.273Z,20.80
2018-07-04T23:44:56.045Z,20.81
2018-07-04T23:47:35.913Z,20.78
2018-07-04T23:50:15.588Z,20.75
2018-07-04T23:52:55.263Z,20.82
2018-07-04T23:55:34.973Z,20.70
2018-07-04T23:58:14.765Z,20.60
